sensor_id;sensor_type;location;lat;lon;timestamp;pressure;altitude;pressure_sealevel;temperature;humidity
5872;BME280;2962;51.312;7.378;2022-09-09T00:10:00;96827.34;;;14.56;100.00
5872;BME280;2962;51.312;7.378;2022-09-09T00:12:57;96828.06;;;14.60;100.00
5872;BME280;2962;51.312;7.378;2022-09-09T00:15:30;96824.13;;;14.64;100.00
5872;BME280;2962;51.312;7.378;2022-09-09T00:18:23;96829.63;;;14.64;100.00
5872;BME280;2962;51.312;7.378;2022-09-09T00:23:30;96814.88;;;14.48;100.00
5872;BME280;2962;51.312;7.378;2022-09-09T00:28:45;96818.13;;;14.39;100.00
5872;BME280;2962;51.312;7.378;2022-09-09T00:31:18;96820.84;;;14.39;100.00
5872;BME280;2962;51.312;7.378;2022-09-09T00:33:46;96814.22;;;14.36;100.00
5872;BME280;2962;51.312;7.378;2022-09-09T00:36:15;96805.72;;;14.27;100.00
5872;BME280;2962;51.312;7.378;2022-09-09T00:38:49;96797.16;;;14.22;100.00
5872;BME280;2962;51.312;7.378;2022-09-09T00:41:31;96807.41;;;14.14;100.00
5872;BME280;2962;51.312;7.378;2022-09-09T00:44:17;96795.84;;;13.99;100.00
5872;BME280;2962;51.312;7.378;2022-09-09T00:50:00;96800.19;;;13.93;100.00
5872;BME280;2962;51.312;7.378;2022-09-09T00:53:22;96803.03;;;13.82;100.00
5872;BME280;2962;51.312;7.378;2022-09-09T00:55:48;96800.00;;;13.70;100.00
5872;BME280;2962;51.312;7.378;2022-09-09T00:58:14;96789.91;;;13.59;100.00
5872;BME280;2962;51.312;7.378;2022-09-09T01:00:44;96803.25;;;13.57;100.00
5872;BME280;2962;51.312;7.378;2022-09-09T01:03:19;96791.13;;;13.55;100.00
5872;BME280;2962;51.312;7.378;2022-09-09T01:06:20;96797.41;;;13.52;100.00
5872;BME280;2962;51.312;7.378;2022-09-09T01:14:38;96813.16;;;13.37;100.00
5872;BME280;2962;51.312;7.378;2022-09-09T01:17:08;96809.13;;;13.52;100.00
5872;BME280;2962;51.312;7.378;2022-09-09T01:19:49;96800.97;;;13.45;100.00
5872;BME280;2962;51.312;7.378;2022-09-09T01:25:13;96810.63;;;13.60;100.00
5872;BME280;2962;51.312;7.378;2022-09-09T01:27:44;96797.31;;;13.66;100.00
5872;BME280;2962;51.312;7.378;2022-09-09T01:30:13;96803.94;;;13.68;100.00
5872;BME280;2962;51.312;7.378;2022-09-09T01:32:48;96798.06;;;13.66;100.00
5872;BME280;2962;51.312;7.378;2022-09-09T01:35:37;96795.28;;;13.74;100.00
5872;BME280;2962;51.312;7.378;2022-09-09T01:38:04;96800.00;;;13.70;100.00
5872;BME280;2962;51.312;7.378;2022-09-09T01:40:30;96795.34;;;13.66;100.00
5872;BME280;2962;51.312;7.378;2022-09-09T01:42:55;96788.69;;;13.67;100.00
5872;BME280;2962;51.312;7.378;2022-09-09T01:45:22;96790.63;;;13.67;100.00
5872;BME280;2962;51.312;7.378;2022-09-09T01:47:47;96787.88;;;13.71;100.00
5872;BME280;2962;51.312;7.378;2022-09-09T01:50:15;96796.81;;;13.78;100.00
5872;BME280;2962;51.312;7.378;2022-09-09T01:52:42;96788.31;;;13.65;100.00
5872;BME280;2962;51.312;7.378;2022-09-09T01:55:09;96796.16;;;13.63;100.00
5872;BME280;2962;51.312;7.378;2022-09-09T02:00:21;96783.00;;;13.44;100.00
5872;BME280;2962;51.312;7.378;2022-09-09T02:02:56;96791.59;;;13.50;100.00
5872;BME280;2962;51.312;7.378;2022-09-09T02:11:16;96794.03;;;13.33;100.00
5872;BME280;2962;51.312;7.378;2022-09-09T02:13:47;96794.84;;;13.30;100.00
5872;BME280;2962;51.312;7.378;2022-09-09T02:16:56;96792.91;;;13.27;100.00
5872;BME280;2962;51.312;7.378;2022-09-09T02:19:37;96786.22;;;13.32;100.00
5872;BME280;2962;51.312;7.378;2022-09-09T02:22:04;96800.31;;;13.30;100.00
5872;BME280;2962;51.312;7.378;2022-09-09T02:24:33;96783.94;;;13.27;100.00
5872;BME280;2962;51.312;7.378;2022-09-09T02:27:01;96781.53;;;13.32;100.00
5872;BME280;2962;51.312;7.378;2022-09-09T02:29:33;96793.31;;;13.26;100.00
5872;BME280;2962;51.312;7.378;2022-09-09T02:32:02;96796.44;;;13.24;100.00
5872;BME280;2962;51.312;7.378;2022-09-09T02:34:31;96793.28;;;13.22;100.00
5872;BME280;2962;51.312;7.378;2022-09-09T02:37:00;96784.34;;;13.14;100.00
5872;BME280;2962;51.312;7.378;2022-09-09T02:39:28;96796.47;;;13.17;100.00
5872;BME280;2962;51.312;7.378;2022-09-09T02:41:53;96794.13;;;13.15;100.00
5872;BME280;2962;51.312;7.378;2022-09-09T02:44:19;96793.38;;;13.15;100.00
5872;BME280;2962;51.312;7.378;2022-09-09T02:49:15;96790.66;;;13.11;100.00
5872;BME280;2962;51.312;7.378;2022-09-09T02:52:00;96790.25;;;13.13;100.00
5872;BME280;2962;51.312;7.378;2022-09-09T02:54:31;96796.88;;;13.15;100.00
5872;BME280;2962;51.312;7.378;2022-09-09T02:57:03;96800.38;;;13.16;100.00
5872;BME280;2962;51.312;7.378;2022-09-09T02:59:29;96795.72;;;13.13;100.00
5872;BME280;2962;51.312;7.378;2022-09-09T03:01:55;96799.19;;;13.20;100.00
5872;BME280;2962;51.312;7.378;2022-09-09T03:04:20;96790.19;;;13.20;100.00
5872;BME280;2962;51.312;7.378;2022-09-09T03:06:46;96783.19;;;13.15;100.00
5872;BME280;2962;51.312;7.378;2022-09-09T03:09:11;96777.72;;;13.15;100.00
5872;BME280;2962;51.312;7.378;2022-09-09T03:11:37;96788.22;;;13.20;100.00
5872;BME280;2962;51.312;7.378;2022-09-09T03:14:03;96792.56;;;13.14;100.00
5872;BME280;2962;51.312;7.378;2022-09-09T03:16:29;96784.44;;;13.07;100.00
5872;BME280;2962;51.312;7.378;2022-09-09T03:18:55;96784.44;;;13.07;100.00
5872;BME280;2962;51.312;7.378;2022-09-09T03:21:20;96784.81;;;13.06;100.00
5872;BME280;2962;51.312;7.378;2022-09-09T03:23:46;96787.56;;;13.02;100.00
5872;BME280;2962;51.312;7.378;2022-09-09T03:26:12;96783.69;;;13.00;100.00
5872;BME280;2962;51.312;7.378;2022-09-09T03:28:39;96784.47;;;13.00;100.00
5872;BME280;2962;51.312;7.378;2022-09-09T03:31:06;96786.41;;;13.03;100.00
5872;BME280;2962;51.312;7.378;2022-09-09T03:33:31;96777.47;;;12.95;100.00
5872;BME280;2962;51.312;7.378;2022-09-09T03:35:57;96784.47;;;13.00;100.00
5872;BME280;2962;51.312;7.378;2022-09-09T03:38:23;96778.25;;;12.96;100.00
5872;BME280;2962;51.312;7.378;2022-09-09T03:40:51;96774.72;;;12.99;100.00
5872;BME280;2962;51.312;7.378;2022-09-09T03:43:16;96770.81;;;12.97;100.00
5872;BME280;2962;51.312;7.378;2022-09-09T03:45:46;96784.81;;;13.06;100.00
5872;BME280;2962;51.312;7.378;2022-09-09T03:48:15;96783.25;;;13.05;100.00
5872;BME280;2962;51.312;7.378;2022-09-09T03:50:45;96773.53;;;13.00;100.00
5872;BME280;2962;51.312;7.378;2022-09-09T03:53:10;96776.25;;;13.04;100.00
5872;BME280;2962;51.312;7.378;2022-09-09T03:55:35;96786.38;;;13.07;100.00
5872;BME280;2962;51.312;7.378;2022-09-09T03:58:01;96782.09;;;13.02;100.00
5872;BME280;2962;51.312;7.378;2022-09-09T04:00:26;96770.41;;;12.98;100.00
5872;BME280;2962;51.312;7.378;2022-09-09T04:02:51;96789.50;;;13.09;100.00
5872;BME280;2962;51.312;7.378;2022-09-09T04:05:19;96786.00;;;13.05;100.00
5872;BME280;2962;51.312;7.378;2022-09-09T04:07:44;96791.47;;;13.05;100.00
5872;BME280;2962;51.312;7.378;2022-09-09T04:10:09;96774.66;;;13.03;100.00
5872;BME280;2962;51.312;7.378;2022-09-09T04:12:35;96782.88;;;13.03;100.00
5872;BME280;2962;51.312;7.378;2022-09-09T04:15:00;96783.69;;;13.03;100.00
5872;BME280;2962;51.312;7.378;2022-09-09T04:17:27;96777.88;;;12.90;100.00
5872;BME280;2962;51.312;7.378;2022-09-09T04:19:53;96796.97;;;13.01;100.00
5872;BME280;2962;51.312;7.378;2022-09-09T04:22:18;96791.13;;;12.99;100.00
5872;BME280;2962;51.312;7.378;2022-09-09T04:24:43;96789.16;;;13.00;100.00
5872;BME280;2962;51.312;7.378;2022-09-09T04:27:08;96791.88;;;13.03;100.00
5872;BME280;2962;51.312;7.378;2022-09-09T04:29:34;96784.44;;;13.04;100.00
5872;BME280;2962;51.312;7.378;2022-09-09T04:31:59;96791.00;;;13.13;100.00
5872;BME280;2962;51.312;7.378;2022-09-09T04:34:25;96777.34;;;13.10;100.00
5872;BME280;2962;51.312;7.378;2022-09-09T04:36:50;96783.59;;;13.14;100.00
5872;BME280;2962;51.312;7.378;2022-09-09T04:39:17;96787.81;;;13.22;100.00
5872;BME280;2962;51.312;7.378;2022-09-09T04:41:42;96786.69;;;13.19;100.00
5872;BME280;2962;51.312;7.378;2022-09-09T04:44:07;96778.06;;;13.25;100.00
5872;BME280;2962;51.312;7.378;2022-09-09T04:46:33;96771.06;;;13.20;100.00
5872;BME280;2962;51.312;7.378;2022-09-09T04:48:59;96781.22;;;13.19;100.00
5872;BME280;2962;51.312;7.378;2022-09-09T04:51:25;96764.38;;;13.21;100.00
5872;BME280;2962;51.312;7.378;2022-09-09T04:53:50;96786.28;;;13.25;100.00
5872;BME280;2962;51.312;7.378;2022-09-09T04:56:17;96782.34;;;13.29;100.00
5872;BME280;2962;51.312;7.378;2022-09-09T04:58:43;96777.63;;;13.30;100.00
5872;BME280;2962;51.312;7.378;2022-09-09T05:01:17;96779.47;;;13.47;100.00
5872;BME280;2962;51.312;7.378;2022-09-09T05:03:43;96782.63;;;13.46;100.00
5872;BME280;2962;51.312;7.378;2022-09-09T05:06:13;96782.91;;;13.58;100.00
5872;BME280;2962;51.312;7.378;2022-09-09T05:08:40;96772.78;;;13.52;100.00
5872;BME280;2962;51.312;7.378;2022-09-09T05:13:41;96779.31;;;13.68;100.00
5872;BME280;2962;51.312;7.378;2022-09-09T05:16:06;96779.72;;;13.63;100.00
5872;BME280;2962;51.312;7.378;2022-09-09T05:18:32;96784.38;;;13.70;100.00
5872;BME280;2962;51.312;7.378;2022-09-09T05:21:00;96778.47;;;13.72;100.00
5872;BME280;2962;51.312;7.378;2022-09-09T05:23:25;96769.91;;;13.70;100.00
5872;BME280;2962;51.312;7.378;2022-09-09T05:25:57;96764.47;;;13.66;100.00
5872;BME280;2962;51.312;7.378;2022-09-09T05:28:24;96771.88;;;13.69;100.00
5872;BME280;2962;51.312;7.378;2022-09-09T05:31:01;96789.03;;;13.73;100.00
5872;BME280;2962;51.312;7.378;2022-09-09T05:33:30;96766.03;;;13.63;100.00
5872;BME280;2962;51.312;7.378;2022-09-09T05:36:01;96768.00;;;13.63;100.00
5872;BME280;2962;51.312;7.378;2022-09-09T05:38:28;96783.97;;;13.68;100.00
5872;BME280;2962;51.312;7.378;2022-09-09T05:40:53;96784.81;;;13.65;100.00
5872;BME280;2962;51.312;7.378;2022-09-09T05:43:19;96771.50;;;13.63;100.00
5872;BME280;2962;51.312;7.378;2022-09-09T05:45:46;96782.84;;;13.65;100.00
5872;BME280;2962;51.312;7.378;2022-09-09T05:48:13;96778.19;;;13.62;100.00
5872;BME280;2962;51.312;7.378;2022-09-09T05:50:40;96773.09;;;13.64;100.00
5872;BME280;2962;51.312;7.378;2022-09-09T05:53:05;96789.84;;;13.70;100.00
5872;BME280;2962;51.312;7.378;2022-09-09T05:55:30;96778.56;;;13.64;100.00
5872;BME280;2962;51.312;7.378;2022-09-09T05:57:56;96803.09;;;13.72;100.00
5872;BME280;2962;51.312;7.378;2022-09-09T06:00:21;96797.63;;;13.72;100.00
5872;BME280;2962;51.312;7.378;2022-09-09T06:02:51;96790.59;;;13.74;100.00
5872;BME280;2962;51.312;7.378;2022-09-09T06:05:17;96782.81;;;13.69;100.00
5872;BME280;2962;51.312;7.378;2022-09-09T06:07:42;96787.53;;;13.65;100.00
5872;BME280;2962;51.312;7.378;2022-09-09T06:10:10;96800.00;;;13.70;100.00
5872;BME280;2962;51.312;7.378;2022-09-09T06:12:35;96795.72;;;13.68;100.00
5872;BME280;2962;51.312;7.378;2022-09-09T06:15:01;96789.06;;;13.70;100.00
5872;BME280;2962;51.312;7.378;2022-09-09T06:17:26;96794.94;;;13.68;100.00
5872;BME280;2962;51.312;7.378;2022-09-09T06:19:51;96798.84;;;13.67;100.00
5872;BME280;2962;51.312;7.378;2022-09-09T06:22:17;96795.03;;;13.57;100.00
5872;BME280;2962;51.312;7.378;2022-09-09T06:24:43;96786.09;;;13.53;100.00
5872;BME280;2962;51.312;7.378;2022-09-09T06:27:08;96804.03;;;13.58;100.00
5872;BME280;2962;51.312;7.378;2022-09-09T06:29:33;96791.44;;;13.64;100.00
5872;BME280;2962;51.312;7.378;2022-09-09T06:31:58;96803.56;;;13.66;100.00
5872;BME280;2962;51.312;7.378;2022-09-09T06:34:24;96789.88;;;13.66;100.00
5872;BME280;2962;51.312;7.378;2022-09-09T06:36:49;96800.50;;;13.57;100.00
5872;BME280;2962;51.312;7.378;2022-09-09T06:39:14;96804.03;;;13.58;100.00
5872;BME280;2962;51.312;7.378;2022-09-09T06:41:40;96814.22;;;13.54;100.00
5872;BME280;2962;51.312;7.378;2022-09-09T06:44:07;96803.69;;;13.49;100.00
5872;BME280;2962;51.312;7.378;2022-09-09T06:46:33;96806.56;;;13.34;100.00
5872;BME280;2962;51.312;7.378;2022-09-09T06:48:59;96798.38;;;13.31;100.00
5872;BME280;2962;51.312;7.378;2022-09-09T06:51:35;96802.66;;;13.28;100.00
5872;BME280;2962;51.312;7.378;2022-09-09T06:54:02;96808.13;;;13.32;100.00
5872;BME280;2962;51.312;7.378;2022-09-09T06:56:32;96795.63;;;13.31;100.00
5872;BME280;2962;51.312;7.378;2022-09-09T06:59:01;96801.47;;;13.33;100.00
5872;BME280;2962;51.312;7.378;2022-09-09T07:01:29;96811.16;;;13.41;100.00
5872;BME280;2962;51.312;7.378;2022-09-09T07:03:57;96801.38;;;13.43;100.00
5872;BME280;2962;51.312;7.378;2022-09-09T07:06:28;96825.22;;;13.47;100.00
5872;BME280;2962;51.312;7.378;2022-09-09T07:09:00;96803.31;;;13.47;100.00
5872;BME280;2962;51.312;7.378;2022-09-09T07:11:28;96823.25;;;13.47;100.00
5872;BME280;2962;51.312;7.378;2022-09-09T07:13:54;96818.97;;;13.46;100.00
5872;BME280;2962;51.312;7.378;2022-09-09T07:16:22;96816.22;;;13.46;100.00
5872;BME280;2962;51.312;7.378;2022-09-09T07:18:49;96824.44;;;13.46;100.00
5872;BME280;2962;51.312;7.378;2022-09-09T07:21:16;96819.69;;;13.54;100.00
5872;BME280;2962;51.312;7.378;2022-09-09T07:23:42;96820.81;;;13.60;100.00
5872;BME280;2962;51.312;7.378;2022-09-09T07:26:12;96830.19;;;13.62;100.00
5872;BME280;2962;51.312;7.378;2022-09-09T07:28:38;96823.53;;;13.60;100.00
5872;BME280;2962;51.312;7.378;2022-09-09T07:31:05;96822.31;;;13.68;100.00
5872;BME280;2962;51.312;7.378;2022-09-09T07:33:32;96821.44;;;13.78;100.00
5872;BME280;2962;51.312;7.378;2022-09-09T07:38:47;96829.34;;;14.10;100.00
5872;BME280;2962;51.312;7.378;2022-09-09T07:41:17;96834.41;;;14.15;100.00
5872;BME280;2962;51.312;7.378;2022-09-09T07:43:45;96837.94;;;14.16;100.00
5872;BME280;2962;51.312;7.378;2022-09-09T07:46:17;96834.66;;;14.28;100.00
5872;BME280;2962;51.312;7.378;2022-09-09T07:48:52;96838.09;;;14.36;100.00
5872;BME280;2962;51.312;7.378;2022-09-09T07:51:24;96818.72;;;14.57;100.00
5872;BME280;2962;51.312;7.378;2022-09-09T07:53:59;96824.53;;;14.94;100.00
5872;BME280;2962;51.312;7.378;2022-09-09T07:56:26;96813.78;;;15.06;100.00
5872;BME280;2962;51.312;7.378;2022-09-09T07:58:53;96824.16;;;15.22;100.00
5872;BME280;2962;51.312;7.378;2022-09-09T08:01:22;96806.78;;;15.29;100.00
5872;BME280;2962;51.312;7.378;2022-09-09T08:03:53;96810.13;;;15.17;100.00
5872;BME280;2962;51.312;7.378;2022-09-09T08:06:19;96810.78;;;14.97;100.00
5872;BME280;2962;51.312;7.378;2022-09-09T08:08:45;96801.34;;;14.98;100.00
5872;BME280;2962;51.312;7.378;2022-09-09T08:11:14;96819.94;;;15.14;100.00
5872;BME280;2962;51.312;7.378;2022-09-09T08:13:41;96812.50;;;15.42;100.00
5872;BME280;2962;51.312;7.378;2022-09-09T08:16:16;96824.75;;;15.33;100.00
5872;BME280;2962;51.312;7.378;2022-09-09T08:18:42;96826.19;;;15.72;100.00
5872;BME280;2962;51.312;7.378;2022-09-09T08:21:13;96814.75;;;15.74;100.00
5872;BME280;2962;51.312;7.378;2022-09-09T08:23:42;96804.97;;;15.73;100.00
5872;BME280;2962;51.312;7.378;2022-09-09T08:26:13;96817.84;;;15.76;100.00
5872;BME280;2962;51.312;7.378;2022-09-09T08:28:40;96813.81;;;16.07;100.00
5872;BME280;2962;51.312;7.378;2022-09-09T08:31:18;96790.44;;;16.39;100.00
5872;BME280;2962;51.312;7.378;2022-09-09T08:33:43;96801.94;;;16.34;100.00
5872;BME280;2962;51.312;7.378;2022-09-09T08:36:13;96808.72;;;16.49;100.00
5872;BME280;2962;51.312;7.378;2022-09-09T08:38:41;96815.75;;;16.70;100.00
5872;BME280;2962;51.312;7.378;2022-09-09T08:47:15;96808.09;;;16.81;100.00
5872;BME280;2962;51.312;7.378;2022-09-09T08:50:02;96816.53;;;16.91;100.00
5872;BME280;2962;51.312;7.378;2022-09-09T08:52:37;96806.03;;;17.22;100.00
5872;BME280;2962;51.312;7.378;2022-09-09T08:55:20;96805.91;;;17.45;100.00
5872;BME280;2962;51.312;7.378;2022-09-09T08:57:49;96807.78;;;17.48;100.00
5872;BME280;2962;51.312;7.378;2022-09-09T09:00:17;96792.78;;;17.33;100.00
5872;BME280;2962;51.312;7.378;2022-09-09T09:05:28;96810.88;;;17.50;100.00
5872;BME280;2962;51.312;7.378;2022-09-09T09:08:11;96800.72;;;17.64;100.00
5872;BME280;2962;51.312;7.378;2022-09-09T09:10:46;96799.19;;;17.46;100.00
5872;BME280;2962;51.312;7.378;2022-09-09T09:13:19;96812.97;;;17.95;100.00
5872;BME280;2962;51.312;7.378;2022-09-09T09:15:50;96797.97;;;17.47;100.00
5872;BME280;2962;51.312;7.378;2022-09-09T09:18:18;96824.91;;;17.40;100.00
5872;BME280;2962;51.312;7.378;2022-09-09T09:23:34;96822.94;;;18.05;100.00
5872;BME280;2962;51.312;7.378;2022-09-09T09:26:07;96829.09;;;18.42;100.00
5872;BME280;2962;51.312;7.378;2022-09-09T09:28:34;96820.88;;;18.68;100.00
5872;BME280;2962;51.312;7.378;2022-09-09T09:31:06;96813.94;;;18.34;100.00
5872;BME280;2962;51.312;7.378;2022-09-09T09:33:49;96823.38;;;17.71;100.00
5872;BME280;2962;51.312;7.378;2022-09-09T09:36:15;96826.03;;;17.06;100.00
5872;BME280;2962;51.312;7.378;2022-09-09T09:38:58;96819.00;;;16.85;100.00
5872;BME280;2962;51.312;7.378;2022-09-09T09:41:33;96811.25;;;17.00;100.00
5872;BME280;2962;51.312;7.378;2022-09-09T09:44:01;96815.69;;;17.30;100.00
5872;BME280;2962;51.312;7.378;2022-09-09T09:46:27;96808.91;;;17.51;100.00
5872;BME280;2962;51.312;7.378;2022-09-09T09:48:57;96819.75;;;17.58;100.00
5872;BME280;2962;51.312;7.378;2022-09-09T09:51:24;96824.75;;;17.47;100.00
5872;BME280;2962;51.312;7.378;2022-09-09T09:53:50;96827.84;;;17.13;100.00
5872;BME280;2962;51.312;7.378;2022-09-09T09:56:26;96833.13;;;17.23;100.00
5872;BME280;2962;51.312;7.378;2022-09-09T09:58:54;96809.50;;;17.26;100.00
5872;BME280;2962;51.312;7.378;2022-09-09T10:01:25;96825.41;;;17.18;100.00
5872;BME280;2962;51.312;7.378;2022-09-09T10:03:55;96837.44;;;17.41;100.00
5872;BME280;2962;51.312;7.378;2022-09-09T10:08:56;96810.53;;;18.43;100.00
5872;BME280;2962;51.312;7.378;2022-09-09T10:11:30;96818.41;;;18.86;100.00
5872;BME280;2962;51.312;7.378;2022-09-09T10:14:30;96811.53;;;19.20;100.00
5872;BME280;2962;51.312;7.378;2022-09-09T10:17:36;96815.50;;;19.44;100.00
5872;BME280;2962;51.312;7.378;2022-09-09T10:22:52;96812.38;;;19.04;100.00
5872;BME280;2962;51.312;7.378;2022-09-09T10:25:30;96827.53;;;18.99;100.00
5872;BME280;2962;51.312;7.378;2022-09-09T10:35:53;96819.75;;;17.42;100.00
5872;BME280;2962;51.312;7.378;2022-09-09T10:38:39;96808.13;;;17.34;100.00
5872;BME280;2962;51.312;7.378;2022-09-09T10:41:13;96811.25;;;17.16;100.00
5872;BME280;2962;51.312;7.378;2022-09-09T10:44:06;96812.72;;;17.21;100.00
5872;BME280;2962;51.312;7.378;2022-09-09T10:49:20;96804.03;;;17.91;100.00
5872;BME280;2962;51.312;7.378;2022-09-09T10:57:24;96805.41;;;18.58;100.00
5872;BME280;2962;51.312;7.378;2022-09-09T10:59:55;96796.16;;;19.06;100.00
5872;BME280;2962;51.312;7.378;2022-09-09T11:02:28;96795.41;;;19.31;100.00
5872;BME280;2962;51.312;7.378;2022-09-09T11:05:05;96774.06;;;19.06;100.00
5872;BME280;2962;51.312;7.378;2022-09-09T11:07:49;96792.81;;;18.86;100.00
5872;BME280;2962;51.312;7.378;2022-09-09T11:10:51;96794.69;;;18.76;100.00
5872;BME280;2962;51.312;7.378;2022-09-09T11:18:55;96784.78;;;19.17;100.00
5872;BME280;2962;51.312;7.378;2022-09-09T11:22:00;96786.19;;;18.83;100.00
5872;BME280;2962;51.312;7.378;2022-09-09T11:24:41;96789.72;;;18.54;100.00
5872;BME280;2962;51.312;7.378;2022-09-09T11:29:57;96792.69;;;18.47;100.00
5872;BME280;2962;51.312;7.378;2022-09-09T11:35:17;96806.03;;;18.78;100.00
5872;BME280;2962;51.312;7.378;2022-09-09T11:41:00;96788.41;;;20.47;100.00
5872;BME280;2962;51.312;7.378;2022-09-09T11:43:40;96772.38;;;21.17;100.00
5872;BME280;2962;51.312;7.378;2022-09-09T11:46:07;96783.44;;;21.39;100.00
5872;BME280;2962;51.312;7.378;2022-09-09T11:51:09;96783.53;;;21.26;100.00
5872;BME280;2962;51.312;7.378;2022-09-09T11:53:50;96797.09;;;21.83;100.00
5872;BME280;2962;51.312;7.378;2022-09-09T11:56:26;96778.78;;;21.85;100.00
5872;BME280;2962;51.312;7.378;2022-09-09T12:01:35;96775.06;;;21.70;100.00
5872;BME280;2962;51.312;7.378;2022-09-09T12:06:56;96779.69;;;19.66;100.00
5872;BME280;2962;51.312;7.378;2022-09-09T12:14:43;96789.19;;;18.60;100.00
5872;BME280;2962;51.312;7.378;2022-09-09T12:17:20;96773.81;;;18.17;100.00
5872;BME280;2962;51.312;7.378;2022-09-09T12:19:47;96799.53;;;17.97;100.00
5872;BME280;2962;51.312;7.378;2022-09-09T12:22:21;96782.22;;;17.48;100.00
5872;BME280;2962;51.312;7.378;2022-09-09T12:25:30;96788.41;;;17.19;100.00
5872;BME280;2962;51.312;7.378;2022-09-09T12:30:39;96791.34;;;17.45;100.00
5872;BME280;2962;51.312;7.378;2022-09-09T12:33:12;96792.28;;;19.29;100.00
5872;BME280;2962;51.312;7.378;2022-09-09T12:35:39;96799.16;;;19.63;100.00
5872;BME280;2962;51.312;7.378;2022-09-09T12:38:12;96782.56;;;19.50;100.00
5872;BME280;2962;51.312;7.378;2022-09-09T12:40:39;96780.38;;;19.45;100.00
5872;BME280;2962;51.312;7.378;2022-09-09T12:43:19;96768.38;;;19.86;100.00
5872;BME280;2962;51.312;7.378;2022-09-09T12:45:45;96780.59;;;19.76;100.00
5872;BME280;2962;51.312;7.378;2022-09-09T12:48:14;96758.66;;;20.16;100.00
5872;BME280;2962;51.312;7.378;2022-09-09T12:50:45;96776.81;;;20.39;100.00
5872;BME280;2962;51.312;7.378;2022-09-09T12:53:32;96772.28;;;20.45;100.00
5872;BME280;2962;51.312;7.378;2022-09-09T12:56:01;96778.72;;;20.08;100.00
5872;BME280;2962;51.312;7.378;2022-09-09T12:58:30;96775.97;;;19.22;100.00
5872;BME280;2962;51.312;7.378;2022-09-09T13:01:00;96786.31;;;19.05;100.00
5872;BME280;2962;51.312;7.378;2022-09-09T13:03:30;96778.34;;;18.82;100.00
5872;BME280;2962;51.312;7.378;2022-09-09T13:05:58;96783.00;;;18.97;100.00
5872;BME280;2962;51.312;7.378;2022-09-09T13:08:27;96777.47;;;18.72;100.00
5872;BME280;2962;51.312;7.378;2022-09-09T13:11:01;96788.41;;;19.01;100.00
5872;BME280;2962;51.312;7.378;2022-09-09T13:13:29;96769.63;;;18.83;100.00
5872;BME280;2962;51.312;7.378;2022-09-09T13:15:57;96772.78;;;18.69;100.00
5872;BME280;2962;51.312;7.378;2022-09-09T13:18:29;96765.34;;;18.24;100.00
5872;BME280;2962;51.312;7.378;2022-09-09T13:20:56;96771.59;;;18.12;100.00
5872;BME280;2962;51.312;7.378;2022-09-09T13:23:27;96772.84;;;18.23;100.00
5872;BME280;2962;51.312;7.378;2022-09-09T13:26:01;96777.94;;;18.25;100.00
5872;BME280;2962;51.312;7.378;2022-09-09T13:28:28;96755.59;;;18.07;100.00
5872;BME280;2962;51.312;7.378;2022-09-09T13:31:02;96771.75;;;19.43;100.00
5872;BME280;2962;51.312;7.378;2022-09-09T13:33:35;96763.13;;;20.36;100.00
5872;BME280;2962;51.312;7.378;2022-09-09T13:36:09;96761.78;;;21.25;100.00
5872;BME280;2962;51.312;7.378;2022-09-09T13:38:53;96759.59;;;20.35;100.00
5872;BME280;2962;51.312;7.378;2022-09-09T13:41:21;96780.47;;;19.28;100.00
5872;BME280;2962;51.312;7.378;2022-09-09T13:43:48;96784.41;;;18.47;100.00
5872;BME280;2962;51.312;7.378;2022-09-09T13:46:34;96805.03;;;17.65;100.00
5872;BME280;2962;51.312;7.378;2022-09-09T13:51:41;96844.50;;;15.25;100.00
5872;BME280;2962;51.312;7.378;2022-09-09T13:54:09;96847.91;;;14.71;100.00
5872;BME280;2962;51.312;7.378;2022-09-09T13:56:36;96839.13;;;14.53;100.00
5872;BME280;2962;51.312;7.378;2022-09-09T13:59:04;96840.03;;;14.39;100.00
5872;BME280;2962;51.312;7.378;2022-09-09T14:01:29;96848.19;;;14.50;100.00
5872;BME280;2962;51.312;7.378;2022-09-09T14:03:55;96831.25;;;14.58;100.00
5872;BME280;2962;51.312;7.378;2022-09-09T14:06:21;96837.38;;;14.70;100.00
5872;BME280;2962;51.312;7.378;2022-09-09T14:08:48;96832.19;;;15.06;100.00
5872;BME280;2962;51.312;7.378;2022-09-09T14:11:14;96838.56;;;15.30;100.00
5872;BME280;2962;51.312;7.378;2022-09-09T14:13:40;96831.66;;;15.45;100.00
5872;BME280;2962;51.312;7.378;2022-09-09T14:16:05;96820.69;;;15.45;100.00
5872;BME280;2962;51.312;7.378;2022-09-09T14:18:31;96818.28;;;15.47;100.00
5872;BME280;2962;51.312;7.378;2022-09-09T14:20:57;96823.97;;;15.60;100.00
5872;BME280;2962;51.312;7.378;2022-09-09T14:23:24;96825.69;;;15.50;100.00
5872;BME280;2962;51.312;7.378;2022-09-09T14:25:50;96808.84;;;15.48;100.00
5872;BME280;2962;51.312;7.378;2022-09-09T14:28:16;96826.28;;;15.38;100.00
5872;BME280;2962;51.312;7.378;2022-09-09T14:30:42;96831.66;;;15.45;100.00
5872;BME280;2962;51.312;7.378;2022-09-09T14:33:11;96819.78;;;15.25;100.00
5872;BME280;2962;51.312;7.378;2022-09-09T14:35:36;96801.09;;;15.70;100.00
5872;BME280;2962;51.312;7.378;2022-09-09T14:38:04;96801.59;;;15.61;100.00
5872;BME280;2962;51.312;7.378;2022-09-09T14:40:30;96818.34;;;15.44;100.00
5872;BME280;2962;51.312;7.378;2022-09-09T14:42:56;96827.19;;;15.01;100.00
5872;BME280;2962;51.312;7.378;2022-09-09T14:45:22;96827.06;;;14.81;100.00
5872;BME280;2962;51.312;7.378;2022-09-09T14:47:50;96834.25;;;14.68;100.00
5872;BME280;2962;51.312;7.378;2022-09-09T14:50:16;96827.66;;;14.65;100.00
5872;BME280;2962;51.312;7.378;2022-09-09T14:52:41;96834.84;;;14.82;100.00
5872;BME280;2962;51.312;7.378;2022-09-09T14:55:07;96831.19;;;14.62;100.00
5872;BME280;2962;51.312;7.378;2022-09-09T14:57:32;96828.06;;;14.60;100.00
5872;BME280;2962;51.312;7.378;2022-09-09T14:59:57;96828.16;;;14.53;100.00
5872;BME280;2962;51.312;7.378;2022-09-09T15:02:22;96840.03;;;14.39;100.00
5872;BME280;2962;51.312;7.378;2022-09-09T15:04:48;96831.25;;;14.17;100.00
5872;BME280;2962;51.312;7.378;2022-09-09T15:07:15;96840.00;;;14.05;100.00
5872;BME280;2962;51.312;7.378;2022-09-09T15:09:41;96849.41;;;14.04;100.00
5872;BME280;2962;51.312;7.378;2022-09-09T15:12:06;96829.63;;;13.82;100.00
5872;BME280;2962;51.312;7.378;2022-09-09T15:14:32;96839.84;;;13.74;100.00